Terminal Aerodrome Forecast
Issued by NWS

Home | Current Version | Previous Version | Text Only | Print | Product List | Glossary On
Versions: 1 2 3 4 5 6 7 8 9 10 11 12 13 14
000
FTAK31 PAFA 191734
TAFAUN
TAF
PAUN 191734Z 1918/2018 10010KT P6SM SCT050 BKN100
     FM192000 07010KT P6SM FEW050 SCT100
     FM200200 07008KT P6SM SCT100=

USA.gov is the U.S. government's official web portal to all federal, state and local government web resources and services.